Time;durP1;ratioP1;P1;durP2;ratioP2;P2;SDS_P1;SDS_P2;PMS_P1;PMS_P2;Temp;Humidity;BMP_temperature;BMP_pressure;BME280_temperature;BME280_humidity;BME280_pressure;Samples;Min_cycle;Max_cycle;Signal;HPM_P1;HPM_P2
2022/04/11 00:01:11;;;;;;;0.10;0.10;;;;;;;22.34;18.74;99057.84;4997044;28;20022;-73
2022/04/11 00:03:37;;;;;;;0.13;0.13;;;;;;;22.34;18.69;99052.41;4996628;28;20030;-75
2022/04/11 00:06:02;;;;;;;0.17;0.15;;;;;;;22.31;18.61;99043.69;4996996;28;20046;-74
2022/04/11 00:08:28;;;;;;;0.10;0.10;;;;;;;22.32;18.74;99058.13;4997626;28;20026;-74
2022/04/11 00:10:53;;;;;;;0.20;0.20;;;;;;;22.34;18.70;99057.84;4996201;28;20457;-75
2022/04/11 00:13:18;;;;;;;0.20;0.20;;;;;;;22.31;18.59;99057.31;4997492;28;20023;-75
2022/04/11 00:15:44;;;;;;;0.10;0.10;;;;;;;22.32;18.56;99063.56;4997169;28;20027;-74
2022/04/11 00:18:09;;;;;;;0.10;0.10;;;;;;;22.34;18.58;99063.28;4997637;28;20037;-74
2022/04/11 00:20:35;;;;;;;0.20;0.20;;;;;;;22.33;18.63;99069.81;4997414;28;20369;-74
2022/04/11 00:23:03;;;;;;;0.10;0.10;;;;;;;22.31;18.58;99064.66;5001538;28;20465;-73
2022/04/11 00:25:28;;;;;;;0.15;0.15;;;;;;;22.29;18.60;99064.16;5015607;28;20120;-74
2022/04/11 00:27:54;;;;;;;0.20;0.20;;;;;;;22.33;18.52;99067.09;5015571;28;20037;-74
2022/04/11 00:30:19;;;;;;;0.10;0.10;;;;;;;22.33;18.59;99072.53;5015511;28;20025;-74
2022/04/11 00:32:45;;;;;;;0.20;0.20;;;;;;;22.33;18.58;99067.09;5015478;28;20041;-75
2022/04/11 00:35:10;;;;;;;0.10;0.10;;;;;;;22.33;18.65;99083.44;5015379;28;20022;-75
2022/04/11 00:37:37;;;;;;;0.10;0.10;;;;;;;22.29;18.61;99077.78;5015736;28;20030;-73
2022/04/11 00:40:04;;;;;;;0.10;0.10;;;;;;;22.29;18.38;99078.56;5015334;28;20026;-74
2022/04/11 00:42:30;;;;;;;0.20;0.20;;;;;;;22.34;18.56;99090.50;5015310;28;20468;-73
2022/04/11 00:44:56;;;;;;;0.10;0.10;;;;;;;22.33;18.64;99099.75;5015182;28;20030;-72
2022/04/11 00:47:22;;;;;;;0.20;0.20;;;;;;;22.31;18.72;99097.34;5015486;28;20037;-73
2022/04/11 00:49:47;;;;;;;0.10;0.10;;;;;;;22.30;18.65;99096.53;5015191;28;20033;-73
2022/04/11 00:52:13;;;;;;;0.13;0.13;;;;;;;22.33;18.70;99105.19;5013975;28;20046;-73
2022/04/11 00:54:38;;;;;;;0.15;0.15;;;;;;;22.33;18.65;99107.91;4997913;28;20076;-73
2022/04/11 00:57:04;;;;;;;0.17;0.17;;;;;;;22.31;18.64;99109.00;5015554;28;20380;-73
2022/04/11 00:59:29;;;;;;;0.17;0.17;;;;;;;22.32;18.59;99104.41;5015233;28;20377;-73
2022/04/11 01:01:55;;;;;;;0.25;0.17;;;;;;;22.33;18.59;99108.72;5013783;28;20026;-73
2022/04/11 01:04:23;;;;;;;0.22;0.22;;;;;;;22.30;18.63;99099.25;5014860;28;20037;-72
2022/04/11 01:06:55;;;;;;;0.20;0.20;;;;;;;22.30;18.56;99101.97;5014895;28;20029;-72
2022/04/11 01:09:22;;;;;;;0.10;0.10;;;;;;;22.30;18.71;99109.31;5014752;28;20026;-72
2022/04/11 01:11:47;;;;;;;0.25;0.20;;;;;;;22.28;18.50;99106.91;5013655;28;20093;-73
2022/04/11 01:14:13;;;;;;;0.20;0.20;;;;;;;22.29;18.53;99111.22;5013525;28;20034;-73
2022/04/11 01:16:38;;;;;;;0.15;0.15;;;;;;;22.29;18.66;99108.50;5014567;28;20026;-73
2022/04/11 01:19:04;;;;;;;0.20;0.20;;;;;;;22.30;18.64;99115.59;5014934;28;20034;-74
2022/04/11 01:21:31;;;;;;;0.10;0.10;;;;;;;22.30;18.61;99118.31;5014851;28;20022;-74
2022/04/11 01:23:57;;;;;;;0.15;0.15;;;;;;;22.30;18.77;99123.75;5002177;28;20030;-74
2022/04/11 01:26:22;;;;;;;0.20;0.20;;;;;;;22.31;18.73;99130.00;4993983;28;20035;-74
2022/04/11 01:28:48;;;;;;;0.17;0.17;;;;;;;22.30;18.68;99128.34;4995467;28;20409;-74
2022/04/11 01:31:14;;;;;;;0.10;0.10;;;;;;;22.29;18.68;99133.00;4995642;28;20424;-73
2022/04/11 01:33:40;;;;;;;0.25;0.10;;;;;;;22.28;18.68;99138.75;4995591;28;20027;-75
2022/04/11 01:36:05;;;;;;;0.20;0.20;;;;;;;22.31;18.66;99141.69;4994928;28;20475;-74
2022/04/11 01:38:31;;;;;;;0.10;0.10;;;;;;;22.29;18.66;99143.88;4993748;28;20473;-74
2022/04/11 01:40:56;;;;;;;0.10;0.10;;;;;;;22.31;18.70;99143.59;4994948;28;20388;-74
2022/04/11 01:43:23;;;;;;;0.20;0.20;;;;;;;22.28;18.71;99144.19;4994619;28;20479;-75
2022/04/11 01:45:48;;;;;;;0.20;0.20;;;;;;;22.30;18.71;99145.53;4993522;28;20042;-74
2022/04/11 01:48:14;;;;;;;0.20;0.20;;;;;;;22.29;18.72;99154.78;4994516;28;20042;-74
2022/04/11 01:50:40;;;;;;;0.10;0.10;;;;;;;22.28;18.66;99158.63;4994573;28;20035;-74
2022/04/11 01:53:10;;;;;;;0.20;0.20;;;;;;;22.28;18.65;99155.91;4994242;28;20196;-75
2022/04/11 01:55:35;;;;;;;0.10;0.10;;;;;;;22.29;18.73;99153.97;4994604;28;20045;-74
2022/04/11 01:58:04;;;;;;;0.20;0.20;;;;;;;22.28;18.63;99155.91;4994442;28;20396;-74
2022/04/11 02:00:30;;;;;;;0.20;0.10;;;;;;;22.30;18.67;99156.41;4994583;28;20031;-75
2022/04/11 02:02:56;;;;;;;0.10;0.10;;;;;;;22.29;18.68;99160.22;4995066;28;20033;-74
2022/04/11 02:05:21;;;;;;;0.20;0.20;;;;;;;22.33;18.70;99165.06;4994145;28;20034;-74
2022/04/11 02:07:47;;;;;;;0.10;0.10;;;;;;;22.30;18.79;99161.03;4994920;28;20030;-74
2022/04/11 02:10:12;;;;;;;0.10;0.10;;;;;;;22.30;18.42;99150.97;4994512;28;20527;-74
2022/04/11 02:12:39;;;;;;;0.15;0.15;;;;;;;22.32;18.68;99158.84;4994404;28;20030;-74
2022/04/11 02:15:06;;;;;;;0.20;0.20;;;;;;;22.29;18.61;99154.78;4994161;28;20038;-71
2022/04/11 02:17:31;;;;;;;0.20;0.20;;;;;;;22.22;18.72;99151.59;5009462;28;20050;-72
2022/04/11 02:19:57;;;;;;;0.20;0.20;;;;;;;22.30;18.65;99163.75;4993969;28;20054;-73
2022/04/11 02:22:22;;;;;;;0.20;0.20;;;;;;;22.29;18.57;99160.22;4993938;28;20069;-72
2022/04/11 02:24:48;;;;;;;0.20;0.20;;;;;;;22.29;18.66;99167.59;5012526;28;20026;-73
2022/04/11 02:27:14;;;;;;;0.20;0.20;;;;;;;22.30;18.68;99167.28;5012315;28;20123;-72
2022/04/11 02:29:39;;;;;;;0.20;0.20;;;;;;;22.29;18.68;99173.03;5013900;28;20034;-72
2022/04/11 02:32:05;;;;;;;0.10;0.10;;;;;;;22.30;18.59;99178.19;5013237;28;20026;-72
2022/04/11 02:34:31;;;;;;;0.10;0.10;;;;;;;22.28;18.61;99180.38;5014078;28;20032;-72
2022/04/11 02:36:56;;;;;;;0.28;0.28;;;;;;;22.28;18.61;99177.66;5013802;28;20360;-72
2022/04/11 02:39:22;;;;;;;0.10;0.10;;;;;;;22.29;18.65;99178.47;5012331;28;20029;-72
2022/04/11 02:41:47;;;;;;;0.10;0.10;;;;;;;22.30;18.50;99191.78;5013471;28;20026;-72
2022/04/11 02:44:13;;;;;;;0.20;0.20;;;;;;;22.28;18.59;99179.56;5013744;28;20022;-73
2022/04/11 02:46:39;;;;;;;0.13;0.10;;;;;;;22.23;18.49;99177.72;5013887;28;20521;-72
2022/04/11 02:49:04;;;;;;;0.20;0.20;;;;;;;22.29;18.53;99192.06;5012549;28;20036;-74
2022/04/11 02:51:30;;;;;;;0.10;0.10;;;;;;;22.29;18.58;99198.31;4995557;28;20128;-74
2022/04/11 02:53:55;;;;;;;0.20;0.20;;;;;;;22.30;18.46;99204.56;5013695;28;20014;-74
2022/04/11 02:56:21;;;;;;;0.10;0.10;;;;;;;22.27;18.55;99202.41;5013467;28;20034;-74
2022/04/11 02:58:46;;;;;;;0.20;0.20;;;;;;;22.29;18.52;99209.22;5012499;28;20040;-75
2022/04/11 03:01:11;;;;;;;0.10;0.10;;;;;;;22.28;18.54;99206.78;5013706;28;20026;-73
2022/04/11 03:03:37;;;;;;;0.20;0.20;;;;;;;22.24;18.55;99197.56;5013590;28;20407;-74
2022/04/11 03:06:03;;;;;;;0.10;0.10;;;;;;;22.28;18.47;99221.22;5012517;28;20022;-74
2022/04/11 03:08:28;;;;;;;0.10;0.10;;;;;;;22.27;18.44;99214.13;5013570;28;20436;-75
2022/04/11 03:10:54;;;;;;;0.20;0.20;;;;;;;22.26;18.45;99226.09;5013187;28;20033;-74
2022/04/11 03:13:20;;;;;;;0.20;0.20;;;;;;;22.27;18.47;99232.34;5013481;28;20022;-74
2022/04/11 03:15:46;;;;;;;0.10;0.10;;;;;;;22.29;18.51;99224.72;5013617;28;20029;-75
2022/04/11 03:18:12;;;;;;;0.10;0.10;;;;;;;22.28;18.41;99223.94;5013638;28;20030;-75
2022/04/11 03:20:37;;;;;;;0.20;0.20;;;;;;;22.30;18.37;99229.88;5014311;28;20026;-75
2022/04/11 03:23:02;;;;;;;0.20;0.20;;;;;;;22.30;18.44;99227.16;4988651;28;20489;-75
2022/04/11 03:25:28;;;;;;;0.20;0.20;;;;;;;22.33;18.39;99235.84;4973531;28;20030;-75
2022/04/11 03:27:53;;;;;;;0.30;0.20;;;;;;;22.33;18.31;99228.47;4975489;28;20031;-75
2022/04/11 03:30:19;;;;;;;0.20;0.20;;;;;;;22.36;18.50;99229.81;4974472;28;20085;-74
2022/04/11 03:32:45;;;;;;;0.13;0.10;;;;;;;22.36;18.31;99229.81;4974291;28;20078;-74
2022/04/11 03:35:11;;;;;;;0.10;0.10;;;;;;;22.39;18.29;99237.41;4974476;28;20046;-74
2022/04/11 03:37:36;;;;;;;0.20;0.20;;;;;;;22.41;18.22;99243.34;4974294;28;20434;-75
2022/04/11 03:40:03;;;;;;;0.68;0.10;;;;;;;22.41;18.29;99246.88;4974821;28;20346;-75
2022/04/11 03:42:28;;;;;;;0.10;0.10;;;;;;;22.43;18.26;99252.81;4974202;28;20081;-75
2022/04/11 03:44:53;;;;;;;0.20;0.20;;;;;;;22.46;18.35;99259.63;4974987;28;20027;-75
2022/04/11 03:47:19;;;;;;;0.10;0.10;;;;;;;22.46;18.30;99248.72;4977513;28;20035;-75
2022/04/11 03:49:44;;;;;;;0.20;0.20;;;;;;;22.47;18.20;99253.88;4977453;28;20038;-74
2022/04/11 03:52:10;;;;;;;0.10;0.10;;;;;;;22.50;18.21;99264.16;4977234;28;20045;-74
2022/04/11 03:54:35;;;;;;;0.20;0.20;;;;;;;22.52;18.21;99258.41;4977723;28;20027;-74
2022/04/11 03:57:01;;;;;;;0.30;0.30;;;;;;;22.55;18.18;99257.03;4977852;28;20393;-74
2022/04/11 03:59:26;;;;;;;0.10;0.10;;;;;;;22.53;18.06;99268.22;4977558;28;20074;-74
2022/04/11 04:01:52;;;;;;;0.20;0.20;;;;;;;22.31;18.43;99268.78;4977037;28;20045;-74
2022/04/11 04:04:17;;;;;;;0.20;0.20;;;;;;;22.43;18.36;99268.38;4977367;28;20114;-74
2022/04/11 04:06:43;;;;;;;0.20;0.20;;;;;;;22.49;18.42;99270.72;4977020;28;20034;-72
2022/04/11 04:09:08;;;;;;;0.20;0.20;;;;;;;22.57;18.18;99279.31;4977404;28;20027;-73
2022/04/11 04:11:34;;;;;;;0.10;0.10;;;;;;;22.60;18.16;99274.09;4977345;28;20488;-72
2022/04/11 04:13:59;;;;;;;0.13;0.13;;;;;;;22.61;18.04;99278.44;4977203;28;20030;-72
2022/04/11 04:16:26;;;;;;;0.28;0.10;;;;;;;22.63;18.08;99284.41;4977488;28;20105;-72
2022/04/11 04:18:54;;;;;;;0.10;0.10;;;;;;;22.67;18.20;99287.34;4977425;28;20110;-72
2022/04/11 04:21:20;;;;;;;0.17;0.17;;;;;;;22.58;18.37;99298.09;4978041;28;20034;-73
2022/04/11 04:23:45;;;;;;;0.10;0.10;;;;;;;22.63;18.32;99295.31;4994458;28;20046;-73
2022/04/11 04:26:11;;;;;;;0.20;0.20;;;;;;;22.71;18.24;99298.47;5016993;28;20353;-73
2022/04/11 04:28:36;;;;;;;0.10;0.10;;;;;;;22.75;18.22;99307.66;5016092;28;20469;-71
2022/04/11 04:31:02;;;;;;;0.20;0.20;;;;;;;22.77;18.08;99314.44;5017333;28;20026;-72
2022/04/11 04:33:30;;;;;;;1.55;0.30;;;;;;;22.57;18.47;99312.00;5019603;28;20033;-72
2022/04/11 04:35:56;;;;;;;0.30;0.20;;;;;;;22.73;18.13;99315.31;5018113;28;20037;-73
2022/04/11 04:38:21;;;;;;;0.10;0.10;;;;;;;22.81;18.06;99318.19;5016540;28;20520;-73
2022/04/11 04:40:47;;;;;;;0.10;0.10;;;;;;;22.86;18.13;99325.47;5016941;28;20187;-72
2022/04/11 04:43:12;;;;;;;1.17;0.10;;;;;;;22.82;17.97;99319.00;5017005;28;20022;-73
2022/04/11 04:45:37;;;;;;;0.20;0.20;;;;;;;22.92;17.99;99337.94;5016865;28;20034;-72
2022/04/11 04:48:04;;;;;;;0.10;0.10;;;;;;;22.94;17.96;99343.88;5016785;28;20026;-72
2022/04/11 04:50:30;;;;;;;0.10;0.10;;;;;;;22.93;18.06;99330.56;5015950;28;20033;-72
2022/04/11 04:52:55;;;;;;;0.85;0.15;;;;;;;22.97;17.97;99337.81;5015958;28;20412;-72
2022/04/11 04:55:21;;;;;;;0.10;0.10;;;;;;;22.85;18.07;99345.63;5015405;28;20037;-72
2022/04/11 04:57:46;;;;;;;0.82;0.17;;;;;;;22.89;18.38;99346.69;5016021;28;20047;-73
2022/04/11 05:00:14;;;;;;;0.20;0.20;;;;;;;22.92;18.32;99351.56;5017187;28;20052;-73
2022/04/11 05:02:45;;;;;;;0.40;0.17;;;;;;;23.08;18.25;99343.16;5016792;28;20329;-74
2022/04/11 05:05:11;;;;;;;0.55;0.30;;;;;;;23.17;18.20;99344.13;5016606;28;20032;-74
2022/04/11 05:07:37;;;;;;;0.20;0.20;;;;;;;23.19;18.19;99350.06;5016658;28;20034;-75
2022/04/11 05:10:04;;;;;;;0.22;0.22;;;;;;;23.24;17.89;99353.50;5016550;28;20381;-75
2022/04/11 05:12:29;;;;;;;0.20;0.20;;;;;;;23.26;17.98;99350.50;5017551;28;20373;-75
2022/04/11 05:14:55;;;;;;;0.32;0.30;;;;;;;23.26;17.97;99361.41;5017935;28;20037;-74
2022/04/11 05:17:22;;;;;;;0.70;0.30;;;;;;;23.24;17.77;99350.78;5017300;28;20385;-75
2022/04/11 05:19:48;;;;;;;1.33;0.60;;;;;;;23.32;17.80;99360.22;5018520;28;20042;-75
2022/04/11 05:22:13;;;;;;;0.60;0.40;;;;;;;23.29;17.70;99358.09;5015893;28;20373;-74
2022/04/11 05:24:39;;;;;;;1.63;0.50;;;;;;;23.34;17.85;99370.84;5000771;28;20042;-74
2022/04/11 05:27:04;;;;;;;0.40;0.40;;;;;;;23.25;17.98;99359.81;4997671;28;20089;-74
2022/04/11 05:29:30;;;;;;;0.88;0.40;;;;;;;23.24;17.84;99380.78;4997866;28;20096;-75
2022/04/11 05:31:55;;;;;;;0.70;0.40;;;;;;;23.29;17.73;99376.38;5000839;28;20412;-74
2022/04/11 05:34:20;;;;;;;0.20;0.20;;;;;;;23.34;17.92;99379.81;5000647;28;20125;-75
2022/04/11 05:36:46;;;;;;;0.25;0.22;;;;;;;23.35;17.82;99376.00;5002830;28;20085;-75
2022/04/11 05:39:11;;;;;;;0.30;0.30;;;;;;;23.38;17.68;99386.28;5002749;28;20468;-76
2022/04/11 05:41:37;;;;;;;0.30;0.30;;;;;;;23.38;17.75;99391.72;5001703;28;20058;-75
2022/04/11 05:44:02;;;;;;;0.28;0.28;;;;;;;23.39;17.68;99395.28;4997285;28;20073;-76
2022/04/11 05:46:28;;;;;;;1.23;0.20;;;;;;;23.36;17.72;99396.69;4981224;28;20497;-75
2022/04/11 05:48:54;;;;;;;0.22;0.20;;;;;;;23.42;17.65;99403.69;4998892;28;20073;-75
2022/04/11 05:51:20;;;;;;;0.30;0.20;;;;;;;23.50;17.77;99394.00;5001941;28;20022;-74
2022/04/11 05:53:45;;;;;;;0.28;0.28;;;;;;;23.58;17.74;99404.22;5003130;28;20026;-74
2022/04/11 05:56:11;;;;;;;0.95;0.32;;;;;;;23.70;17.79;99409.22;5004280;28;20030;-75
2022/04/11 05:58:36;;;;;;;1.05;0.40;;;;;;;23.71;17.66;99416.28;5008710;28;20030;-75
2022/04/11 06:01:03;;;;;;;0.68;0.30;;;;;;;23.75;17.56;99417.31;5009527;28;20010;-75
2022/04/11 06:03:28;;;;;;;0.10;0.10;;;;;;;23.73;17.54;99416.81;5006733;28;20017;-75
2022/04/11 06:05:54;;;;;;;0.30;0.30;;;;;;;23.74;17.59;99415.69;5009104;28;20030;-75
2022/04/11 06:08:24;;;;;;;0.80;0.20;;;;;;;23.54;17.79;99413.28;5009143;28;20110;-73
2022/04/11 06:10:49;;;;;;;0.43;0.30;;;;;;;23.59;17.54;99424.97;5015698;28;20018;-74
2022/04/11 06:13:15;;;;;;;2.60;0.20;;;;;;;23.68;17.46;99427.81;5013337;28;20057;-75
2022/04/11 06:15:40;;;;;;;0.20;0.20;;;;;;;23.69;17.72;99440.31;5015602;28;20037;-75
2022/04/11 06:18:06;;;;;;;1.77;0.22;;;;;;;23.75;17.39;99433.69;5015087;28;20098;-74
2022/04/11 06:20:31;;;;;;;0.20;0.20;;;;;;;23.80;17.26;99435.50;5015989;28;20034;-73
2022/04/11 06:22:58;;;;;;;0.20;0.20;;;;;;;23.84;17.18;99435.78;5016594;28;20018;-73
2022/04/11 06:25:23;;;;;;;1.35;0.20;;;;;;;23.90;17.34;99440.00;5035303;28;20029;-74
2022/04/11 06:27:49;;;;;;;0.20;0.20;;;;;;;23.88;17.26;99439.50;5036317;28;20041;-70
2022/04/11 06:30:14;;;;;;;0.15;0.15;;;;;;;23.83;17.24;99439.59;5035652;28;20090;-74
2022/04/11 06:32:40;;;;;;;0.30;0.30;;;;;;;23.84;17.23;99431.13;5034611;28;20366;-73
2022/04/11 06:35:05;;;;;;;0.28;0.28;;;;;;;23.87;17.34;99446.06;5035690;28;20030;-72
2022/04/11 06:37:31;;;;;;;1.60;0.20;;;;;;;23.97;17.26;99446.72;5035960;28;20113;-72
2022/04/11 06:39:58;;;;;;;0.57;0.20;;;;;;;23.78;17.04;99446.72;5034636;28;20021;-72
2022/04/11 06:42:23;;;;;;;0.32;0.20;;;;;;;23.85;17.32;99448.28;5034406;28;20056;-73
2022/04/11 06:44:48;;;;;;;0.20;0.20;;;;;;;24.00;17.20;99451.56;5034753;28;20066;-72
2022/04/11 06:47:14;;;;;;;0.52;0.20;;;;;;;24.02;17.16;99459.44;5036071;28;20041;-72
2022/04/11 06:49:39;;;;;;;1.65;0.38;;;;;;;24.03;16.88;99461.06;5035869;28;20030;-72
2022/04/11 06:52:05;;;;;;;0.20;0.20;;;;;;;24.09;16.98;99459.84;5035870;28;20100;-73
2022/04/11 06:54:31;;;;;;;4.38;0.28;;;;;;;23.99;16.85;99481.88;5036299;28;20010;-73
2022/04/11 06:56:56;;;;;;;0.40;0.20;;;;;;;23.84;17.07;99471.22;5035254;28;20022;-73
2022/04/11 06:59:22;;;;;;;0.82;0.10;;;;;;;23.93;16.99;99463.97;5033661;28;20063;-74
2022/04/11 07:01:48;;;;;;;0.65;0.20;;;;;;;24.07;16.64;99473.00;5034037;28;20033;-72
2022/04/11 07:04:13;;;;;;;0.98;0.20;;;;;;;24.15;16.67;99472.31;5033015;28;20021;-73
2022/04/11 07:06:38;;;;;;;0.10;0.10;;;;;;;24.21;16.77;99470.28;5033356;28;20024;-72
2022/04/11 07:09:04;;;;;;;0.50;0.30;;;;;;;24.25;16.27;99470.50;5034140;28;20014;-72
2022/04/11 07:11:31;;;;;;;0.25;0.25;;;;;;;24.23;16.64;99470.00;5032863;28;20024;-73
2022/04/11 07:13:57;;;;;;;0.10;0.10;;;;;;;24.24;16.62;99466.16;5034840;28;20030;-73
2022/04/11 07:16:24;;;;;;;0.40;0.20;;;;;;;24.19;16.62;99473.31;5033327;28;20037;-74
2022/04/11 07:18:50;;;;;;;0.55;0.10;;;;;;;23.55;17.24;99475.72;5005915;28;20513;-73
2022/04/11 07:21:15;;;;;;;0.10;0.10;;;;;;;23.32;17.40;99476.59;5021039;28;20030;-73
2022/04/11 07:23:43;;;;;;;0.28;0.20;;;;;;;23.48;17.20;99479.94;5020648;28;20034;-71
2022/04/11 07:26:09;;;;;;;0.45;0.30;;;;;;;23.86;16.91;99494.38;5020019;28;20101;-73
2022/04/11 07:28:34;;;;;;;1.63;0.70;;;;;;;23.73;16.97;99495.91;5018123;28;20068;-73
2022/04/11 07:31:00;;;;;;;1.30;0.57;;;;;;;24.00;16.93;99494.41;5017505;28;20029;-72
2022/04/11 07:33:25;;;;;;;1.58;0.80;;;;;;;24.32;16.58;99490.06;5016098;28;20042;-73
2022/04/11 07:35:52;;;;;;;0.65;0.40;;;;;;;24.53;16.16;99494.00;4999721;28;20040;-71
2022/04/11 07:38:17;;;;;;;2.30;0.90;;;;;;;24.77;15.99;99505.88;5015066;28;20527;-72
2022/04/11 07:40:43;;;;;;;1.92;1.15;;;;;;;24.99;15.56;99502.41;5015073;28;20070;-74
2022/04/11 07:43:14;;;;;;;1.75;0.60;;;;;;;24.87;15.77;99501.03;5015205;28;20038;-73
2022/04/11 07:45:43;;;;;;;2.88;0.55;;;;;;;25.18;15.43;99505.84;4983831;28;20037;-72
2022/04/11 07:48:09;;;;;;;0.93;0.60;;;;;;;25.23;15.10;99510.38;4998435;28;20129;-73
2022/04/11 07:50:34;;;;;;;0.57;0.40;;;;;;;25.25;15.19;99517.22;4998184;28;20033;-72
2022/04/11 07:53:00;;;;;;;0.85;0.40;;;;;;;25.25;15.30;99517.22;5014701;28;20092;-71
2022/04/11 07:55:26;;;;;;;0.85;0.40;;;;;;;25.10;15.55;99510.09;5015193;28;20412;-72
2022/04/11 07:57:53;;;;;;;0.57;0.30;;;;;;;25.22;15.39;99516.97;4982326;28;20041;-73
2022/04/11 08:00:22;;;;;;;1.90;0.28;;;;;;;25.20;15.25;99520.03;5014820;28;20029;-72
2022/04/11 08:02:52;;;;;;;0.45;0.30;;;;;;;25.24;15.51;99523.75;4998049;28;20117;-72
2022/04/11 08:05:19;;;;;;;0.20;0.20;;;;;;;25.16;15.04;99520.94;5014495;28;20026;-71
2022/04/11 08:07:48;;;;;;;1.05;0.25;;;;;;;25.09;15.38;99548.69;5014261;28;20455;-72
2022/04/11 08:10:13;;;;;;;0.20;0.20;;;;;;;25.14;14.86;99543.09;5016458;28;20570;-71
2022/04/11 08:12:40;;;;;;;0.40;0.30;;;;;;;25.09;14.85;99551.41;5020589;28;20037;-73
2022/04/11 08:15:06;;;;;;;0.30;0.20;;;;;;;25.06;14.96;99544.66;5017482;28;20026;-73
2022/04/11 08:17:42;;;;;;;0.20;0.20;;;;;;;25.08;14.93;99544.34;5016733;28;20033;-72
2022/04/11 08:20:08;;;;;;;0.40;0.30;;;;;;;25.16;15.14;99540.06;4998580;28;20365;-69
2022/04/11 08:22:34;;;;;;;0.10;0.10;;;;;;;25.08;14.89;99539.69;5015739;28;20104;-72
2022/04/11 08:24:59;;;;;;;0.10;0.10;;;;;;;25.17;14.87;99550.69;4978708;28;20046;-73
2022/04/11 08:27:25;;;;;;;0.10;0.10;;;;;;;25.14;14.89;99554.03;4976740;28;20026;-71
2022/04/11 08:29:50;;;;;;;0.10;0.10;;;;;;;25.15;14.67;99561.13;4958978;28;20339;-73
2022/04/11 08:32:18;;;;;;;0.10;0.10;;;;;;;25.07;14.81;99562.66;4975881;28;20033;-73
2022/04/11 08:34:44;;;;;;;0.10;0.10;;;;;;;25.15;14.78;99560.31;4976133;28;20078;-73
2022/04/11 08:37:09;;;;;;;0.22;0.20;;;;;;;25.05;14.87;99573.09;4977297;28;20477;-72
2022/04/11 08:39:34;;;;;;;0.35;0.10;;;;;;;25.11;14.81;99571.03;4958733;28;20078;-71
2022/04/11 08:42:01;;;;;;;0.25;0.10;;;;;;;25.10;14.95;99577.66;4991589;28;20019;-73
2022/04/11 08:44:27;;;;;;;0.10;0.10;;;;;;;25.10;14.61;99583.13;4976882;28;20027;-72
2022/04/11 08:46:55;;;;;;;0.10;0.10;;;;;;;25.15;14.69;99593.94;4958603;28;20043;-73
2022/04/11 08:49:20;;;;;;;0.10;0.10;;;;;;;25.16;14.78;99590.06;4976130;28;20023;-72
2022/04/11 08:51:49;;;;;;;0.20;0.20;;;;;;;25.17;14.77;99596.38;4974880;28;20105;-73
2022/04/11 08:54:15;;;;;;;0.75;0.20;;;;;;;25.12;14.73;99594.56;4976730;28;20041;-73
2022/04/11 08:56:40;;;;;;;0.10;0.10;;;;;;;25.16;14.52;99611.16;4976480;28;20461;-72
2022/04/11 08:59:05;;;;;;;0.10;0.10;;;;;;;25.05;14.79;99605.09;4976322;28;20042;-72
2022/04/11 09:01:32;;;;;;;0.17;0.17;;;;;;;24.92;14.73;99604.78;4975949;28;20031;-73
2022/04/11 09:03:58;;;;;;;0.10;0.10;;;;;;;25.05;14.76;99605.88;4976228;28;20031;-72
2022/04/11 09:06:24;;;;;;;0.20;0.20;;;;;;;25.15;14.54;99610.34;4975573;28;20049;-71
2022/04/11 09:08:53;;;;;;;0.10;0.10;;;;;;;25.01;14.70;99604.06;4976152;28;20089;-73
2022/04/11 09:11:35;;;;;;;0.43;0.20;;;;;;;25.07;14.63;99606.38;4974709;28;20023;-72
2022/04/11 09:14:02;;;;;;;0.20;0.20;;;;;;;25.16;14.48;99613.88;4976471;28;20046;-71
2022/04/11 09:16:54;;;;;;;0.73;0.20;;;;;;;25.21;14.52;99614.59;4958097;28;20457;-72
2022/04/11 09:19:20;;;;;;;0.30;0.20;;;;;;;25.26;14.73;99617.25;4976350;28;20058;-71
2022/04/11 09:21:46;;;;;;;0.60;0.30;;;;;;;24.94;14.92;99620.88;4976013;28;20026;-71
2022/04/11 09:24:16;;;;;;;0.43;0.30;;;;;;;25.07;14.60;99619.25;4992874;28;20022;-71
2022/04/11 09:26:41;;;;;;;1.60;0.60;;;;;;;25.15;14.67;99626.75;5013698;28;20030;-71
2022/04/11 09:29:07;;;;;;;3.13;1.50;;;;;;;25.31;14.66;99624.53;5014961;28;20346;-71
2022/04/11 09:31:32;;;;;;;3.30;1.15;;;;;;;25.51;14.65;99622.50;5014933;28;20041;-72
2022/04/11 09:34:17;;;;;;;1.67;0.93;;;;;;;25.30;14.57;99623.75;5014660;28;20104;-72
2022/04/11 09:36:49;;;;;;;6.57;3.00;;;;;;;25.01;15.08;99631.38;5014348;28;20457;-72
2022/04/11 09:39:15;;;;;;;5.18;1.92;;;;;;;24.79;15.15;99635.63;5015309;28;20033;-73
2022/04/11 09:41:44;;;;;;;8.77;3.65;;;;;;;24.93;15.16;99633.72;5014021;28;20022;-73
2022/04/11 09:44:22;;;;;;;4.80;2.17;;;;;;;25.17;15.12;99642.84;5013948;28;20022;-72
2022/04/11 09:46:49;;;;;;;4.38;1.73;;;;;;;25.47;14.61;99641.44;5014184;28;20030;-72
2022/04/11 09:49:14;;;;;;;6.70;2.03;;;;;;;25.58;14.64;99640.13;5014120;28;20049;-72
2022/04/11 09:52:11;;;;;;;3.80;1.40;;;;;;;25.68;14.50;99655.50;5014313;28;20045;-72
2022/04/11 09:54:42;;;;;;;3.10;1.33;;;;;;;25.67;14.45;99654.69;5011543;28;20107;-72
2022/04/11 09:57:08;;;;;;;1.48;1.20;;;;;;;25.40;14.54;99643.78;5011832;28;20345;-72
2022/04/11 09:59:34;;;;;;;1.95;0.75;;;;;;;25.24;14.60;99651.47;5011910;28;20038;-72
2022/04/11 10:02:00;;;;;;;3.28;1.98;;;;;;;25.52;14.60;99652.28;5011978;28;20034;-72
2022/04/11 10:04:26;;;;;;;9.18;4.18;;;;;;;25.72;14.18;99651.06;5011483;28;20037;-72
2022/04/11 10:06:52;;;;;;;6.40;2.50;;;;;;;25.89;14.12;99664.09;5011630;28;20044;-71
2022/04/11 10:09:19;;;;;;;7.22;2.05;;;;;;;25.94;14.07;99664.00;5011509;28;20057;-71
2022/04/11 10:11:44;;;;;;;6.35;2.22;;;;;;;25.95;14.03;99657.41;5011372;28;20104;-71
2022/04/11 10:14:10;;;;;;;2.38;1.15;;;;;;;25.99;13.98;99663.06;5011646;28;20026;-71
2022/04/11 10:16:56;;;;;;;3.13;1.25;;;;;;;25.91;14.01;99669.28;5011591;28;20069;-73
2022/04/11 10:19:36;;;;;;;2.10;0.80;;;;;;;25.76;14.04;99670.41;5015236;28;20116;-72
2022/04/11 10:22:17;;;;;;;2.03;0.60;;;;;;;25.63;14.50;99672.03;5012204;28;20030;-72
2022/04/11 10:25:06;;;;;;;2.53;1.08;;;;;;;25.45;14.36;99662.84;5002648;28;20049;-71
2022/04/11 10:27:32;;;;;;;3.25;0.85;;;;;;;25.86;14.08;99678.41;4992666;28;20054;-71
2022/04/11 10:29:59;;;;;;;1.98;1.25;;;;;;;25.58;14.07;99675.69;4992637;28;20026;-72
2022/04/11 10:32:25;;;;;;;1.48;0.73;;;;;;;25.56;14.35;99686.16;4994936;28;20030;-75
2022/04/11 10:34:58;;;;;;;2.15;0.60;;;;;;;25.86;13.90;99684.66;4995592;28;20030;-72
2022/04/11 10:37:25;;;;;;;1.77;0.45;;;;;;;26.07;13.68;99683.44;4996523;28;20086;-73
2022/04/11 10:39:50;;;;;;;0.93;0.55;;;;;;;26.16;13.44;99689.81;4996750;28;20129;-72
2022/04/11 10:42:22;;;;;;;0.93;0.50;;;;;;;26.03;13.83;99688.72;4996188;28;20023;-72
2022/04/11 10:44:53;;;;;;;0.82;0.32;;;;;;;25.92;13.75;99682.63;4995390;28;20041;-72
2022/04/11 10:47:21;;;;;;;1.38;0.65;;;;;;;26.07;13.61;99697.13;4994420;28;20352;-72
2022/04/11 10:49:50;;;;;;;1.58;0.50;;;;;;;26.16;13.55;99704.28;4994583;28;20030;-73
2022/04/11 10:52:33;;;;;;;0.95;0.40;;;;;;;26.08;13.50;99701.47;4994178;28;20057;-74
2022/04/11 10:55:08;;;;;;;0.80;0.50;;;;;;;25.98;13.71;99708.81;4997418;28;20419;-74
2022/04/11 10:57:34;;;;;;;1.13;0.60;;;;;;;25.93;13.50;99716.31;4999045;28;20307;-74
2022/04/11 11:00:10;;;;;;;0.40;0.30;;;;;;;25.88;13.75;99719.94;4998441;28;20022;-74
2022/04/11 11:02:47;;;;;;;0.98;0.50;;;;;;;26.17;13.57;99713.34;4997644;28;20109;-73
2022/04/11 11:05:30;;;;;;;0.20;0.20;;;;;;;26.30;13.20;99714.41;4997443;28;20109;-72
2022/04/11 11:08:11;;;;;;;0.77;0.32;;;;;;;26.34;13.33;99726.38;4997179;28;20026;-71
2022/04/11 11:10:49;;;;;;;1.15;0.30;;;;;;;26.07;13.29;99717.09;4997695;28;20030;-73
2022/04/11 11:13:39;;;;;;;1.58;0.20;;;;;;;25.73;13.58;99731.22;4997215;28;20030;-72
2022/04/11 11:16:08;;;;;;;1.55;0.35;;;;;;;25.93;13.35;99728.06;4995503;28;20042;-71
2022/04/11 11:18:48;;;;;;;1.77;0.20;;;;;;;26.08;13.30;99734.34;4996976;28;20030;-71
2022/04/11 11:21:15;;;;;;;0.47;0.30;;;;;;;26.00;13.35;99733.16;4996705;28;20065;-72
2022/04/11 11:23:40;;;;;;;2.47;0.20;;;;;;;25.70;13.54;99735.38;4999264;28;20385;-71
2022/04/11 11:26:07;;;;;;;0.10;0.10;;;;;;;25.84;13.36;99740.84;5016438;28;20033;-72
2022/04/11 11:28:32;;;;;;;0.50;0.20;;;;;;;26.18;13.28;99745.06;5016165;28;20484;-72
2022/04/11 11:30:58;;;;;;;0.20;0.20;;;;;;;26.21;13.25;99750.75;5016689;28;20084;-73
2022/04/11 11:33:23;;;;;;;0.35;0.30;;;;;;;26.27;13.14;99750.63;5017018;28;20240;-73